createdAt,value
2019-02-25T00:02:08.322Z,1.94
2019-02-25T00:04:37.919Z,1.98
2019-02-25T00:07:07.525Z,1.94
2019-02-25T00:09:37.097Z,1.98
2019-02-25T00:12:06.755Z,1.85
2019-02-25T00:14:36.701Z,1.70
2019-02-25T00:17:06.267Z,1.50
2019-02-25T00:19:35.840Z,1.17
2019-02-25T00:22:05.722Z,1.19
2019-02-25T00:24:35.282Z,1.36
2019-02-25T00:27:04.882Z,1.49
2019-02-25T00:29:34.475Z,1.65
2019-02-25T00:32:04.064Z,1.73
2019-02-25T00:34:33.658Z,1.80
2019-02-25T00:37:03.274Z,1.85
2019-02-25T00:39:32.869Z,1.87
2019-02-25T00:42:02.432Z,1.90
2019-02-25T00:44:32.044Z,1.69
2019-02-25T00:47:01.668Z,1.70
2019-02-25T00:49:31.276Z,1.74
2019-02-25T00:52:20.166Z,1.62
2019-02-25T00:54:49.733Z,1.45
2019-02-25T00:57:19.308Z,1.45
2019-02-25T00:59:49.065Z,1.48
2019-02-25T01:02:18.650Z,1.39
2019-02-25T01:04:48.210Z,1.37
2019-02-25T01:07:17.784Z,1.35
2019-02-25T01:09:47.352Z,1.32
2019-02-25T01:12:16.914Z,1.00
2019-02-25T01:14:55.374Z,0.77
2019-02-25T01:17:24.958Z,0.89
2019-02-25T01:19:54.547Z,0.79
2019-02-25T01:22:24.120Z,0.79
2019-02-25T01:24:54.211Z,0.93
2019-02-25T01:27:23.796Z,1.01
2019-02-25T01:29:53.404Z,1.01
2019-02-25T01:32:22.960Z,1.03
2019-02-25T01:34:52.528Z,0.96
2019-02-25T01:37:22.485Z,0.94
2019-02-25T01:39:52.079Z,0.90
2019-02-25T01:42:30.542Z,0.83
2019-02-25T01:45:00.279Z,0.91
2019-02-25T01:47:30.433Z,0.91
2019-02-25T01:50:00.356Z,0.95
2019-02-25T01:52:29.917Z,0.90
2019-02-25T01:54:59.480Z,0.85
2019-02-25T01:57:29.112Z,0.76
2019-02-25T02:00:07.876Z,0.20
2019-02-25T02:02:37.477Z,0.81
2019-02-25T02:05:07.372Z,0.82
2019-02-25T02:07:36.928Z,0.84
2019-02-25T02:10:10.836Z,0.84
2019-02-25T02:12:40.416Z,0.85
2019-02-25T02:15:14.111Z,0.93
2019-02-25T02:17:43.724Z,0.87
2019-02-25T02:20:16.221Z,0.91
2019-02-25T02:22:45.842Z,0.94
2019-02-25T02:25:16.271Z,0.85
2019-02-25T02:27:45.981Z,0.91
2019-02-25T02:30:19.478Z,0.78
2019-02-25T02:32:49.220Z,0.79
2019-02-25T02:35:18.831Z,0.73
2019-02-25T02:37:48.567Z,0.75
2019-02-25T02:40:18.518Z,0.75
2019-02-25T02:42:52.533Z,0.67
2019-02-25T02:45:26.605Z,0.34
2019-02-25T02:48:01.286Z,0.44
2019-02-25T02:50:32.410Z,0.60
2019-02-25T02:53:02.773Z,0.48
2019-02-25T02:55:32.343Z,0.58
2019-02-25T02:58:02.295Z,0.59
2019-02-25T03:00:32.645Z,0.63
2019-02-25T03:03:02.231Z,0.68
2019-02-25T03:05:32.118Z,0.74
2019-02-25T03:08:01.693Z,0.79
2019-02-25T03:10:31.141Z,0.50
2019-02-25T03:13:00.722Z,0.57
2019-02-25T03:15:30.316Z,0.65
2019-02-25T03:17:59.900Z,0.66
2019-02-25T03:20:29.465Z,0.66
2019-02-25T03:22:59.036Z,0.67
2019-02-25T03:25:28.617Z,0.60
2019-02-25T03:27:58.229Z,0.57
2019-02-25T03:30:27.963Z,0.55
2019-02-25T03:32:57.534Z,0.57
2019-02-25T03:35:27.174Z,0.50
2019-02-25T03:37:56.814Z,0.61
2019-02-25T03:40:26.798Z,0.58
2019-02-25T03:42:56.552Z,0.66
2019-02-25T03:45:27.593Z,0.66
2019-02-25T03:47:57.225Z,0.73
2019-02-25T03:50:26.878Z,0.82
2019-02-25T03:52:56.481Z,0.79
2019-02-25T03:55:26.092Z,0.89
2019-02-25T03:57:56.108Z,0.62
2019-02-25T04:00:26.932Z,0.67
2019-02-25T04:02:56.653Z,0.68
2019-02-25T04:05:28.597Z,0.67
2019-02-25T04:07:58.363Z,0.70
2019-02-25T04:10:47.289Z,0.60
2019-02-25T04:13:16.857Z,0.27
2019-02-25T04:15:46.736Z,0.13
2019-02-25T04:18:16.668Z,0.32
2019-02-25T04:20:46.237Z,0.19
2019-02-25T04:23:15.839Z,0.23
2019-02-25T04:25:45.421Z,0.36
2019-02-25T04:28:14.984Z,0.41
2019-02-25T04:30:44.562Z,0.45
2019-02-25T04:33:14.499Z,0.54
2019-02-25T04:35:44.061Z,0.49
2019-02-25T04:38:13.624Z,0.56
2019-02-25T04:40:43.247Z,0.59
2019-02-25T04:43:12.802Z,0.62
2019-02-25T04:45:42.395Z,0.67
2019-02-25T04:48:12.143Z,0.68
2019-02-25T04:50:43.199Z,0.76
2019-02-25T04:53:12.802Z,0.81
2019-02-25T04:55:42.414Z,0.86
2019-02-25T04:58:12.009Z,0.87
2019-02-25T05:00:41.598Z,0.82
2019-02-25T05:03:11.198Z,0.77
2019-02-25T05:05:40.789Z,0.79
2019-02-25T05:08:10.395Z,0.56
2019-02-25T05:10:40.528Z,0.55
2019-02-25T05:13:10.146Z,0.47
2019-02-25T05:15:39.702Z,0.47
2019-02-25T05:18:09.335Z,0.43
2019-02-25T05:20:38.892Z,0.39
2019-02-25T05:23:08.493Z,0.28
2019-02-25T05:25:38.077Z,0.26
2019-02-25T05:28:07.690Z,0.23
2019-02-25T05:30:37.270Z,0.30
2019-02-25T05:33:07.145Z,0.25
2019-02-25T05:35:36.733Z,0.10
2019-02-25T05:38:06.309Z,-0.21
2019-02-25T05:40:35.953Z,-0.16
2019-02-25T05:43:05.639Z,-0.08
2019-02-25T05:45:35.215Z,-0.05
2019-02-25T05:48:06.494Z,-0.08
2019-02-25T05:50:36.899Z,-0.06
2019-02-25T05:53:06.497Z,0.01
2019-02-25T05:55:36.113Z,0.02
2019-02-25T05:58:05.742Z,0.08
2019-02-25T06:00:37.011Z,0.13
2019-02-25T06:03:06.814Z,0.16
2019-02-25T06:05:36.392Z,0.07
2019-02-25T06:08:06.007Z,0.12
2019-02-25T06:10:35.674Z,0.18
2019-02-25T06:13:05.255Z,0.17
2019-02-25T06:15:34.856Z,0.23
2019-02-25T06:18:04.634Z,-0.01
2019-02-25T06:20:34.255Z,0.15
2019-02-25T06:23:04.094Z,0.29
2019-02-25T06:25:33.692Z,0.23
2019-02-25T06:28:03.303Z,0.21
2019-02-25T06:30:32.913Z,0.25
2019-02-25T06:33:02.842Z,0.38
2019-02-25T06:35:32.434Z,0.43
2019-02-25T06:38:02.013Z,0.42
2019-02-25T06:40:31.974Z,0.43
2019-02-25T06:43:01.562Z,0.51
2019-02-25T06:45:35.375Z,0.50
2019-02-25T06:48:05.182Z,0.48
2019-02-25T06:50:35.814Z,0.57
2019-02-25T06:53:05.469Z,0.76
2019-02-25T06:55:35.050Z,0.87
2019-02-25T06:58:04.713Z,1.02
2019-02-25T07:00:34.268Z,1.06
2019-02-25T07:03:04.018Z,1.30
2019-02-25T07:05:35.197Z,1.41
2019-02-25T07:08:06.407Z,1.33
2019-02-25T07:10:37.651Z,1.39
2019-02-25T07:13:08.834Z,1.92
2019-02-25T07:15:41.513Z,3.50
2019-02-25T07:18:12.679Z,5.90
2019-02-25T07:20:43.833Z,8.63
2019-02-25T07:23:15.094Z,10.97
2019-02-25T07:25:46.310Z,12.67
2019-02-25T07:28:23.477Z,14.23
2019-02-25T07:30:54.923Z,15.57
2019-02-25T07:33:26.106Z,16.40
2019-02-25T07:35:57.321Z,17.49
2019-02-25T07:38:28.540Z,18.16
2019-02-25T07:41:02.609Z,18.86
2019-02-25T07:43:33.800Z,19.21
2019-02-25T07:46:04.988Z,19.90
2019-02-25T07:48:36.151Z,20.78
2019-02-25T07:51:08.345Z,21.51
2019-02-25T07:53:39.520Z,22.15
2019-02-25T07:56:10.663Z,22.37
2019-02-25T07:58:41.850Z,23.17
2019-02-25T08:01:13.058Z,23.44
2019-02-25T08:03:44.242Z,23.87
2019-02-25T08:06:34.796Z,23.87
2019-02-25T08:09:07.912Z,25.03
2019-02-25T08:11:39.112Z,25.25
2019-02-25T08:14:16.318Z,25.86
2019-02-25T08:16:47.487Z,26.07
2019-02-25T08:19:18.716Z,25.60
2019-02-25T08:21:49.931Z,26.45
2019-02-25T08:24:30.179Z,26.46
2019-02-25T08:26:54.405Z,24.01
2019-02-25T08:29:27.018Z,19.50
2019-02-25T08:31:58.221Z,23.78
2019-02-25T08:34:29.391Z,25.99
2019-02-25T08:39:52.136Z,27.55
2019-02-25T08:45:16.295Z,22.14
2019-02-25T08:47:47.479Z,24.13
2019-02-25T08:50:23.044Z,24.01
2019-02-25T08:52:55.724Z,26.48
2019-02-25T08:55:25.328Z,26.12
2019-02-25T08:58:14.226Z,27.54
2019-02-25T09:00:43.878Z,26.82
2019-02-25T09:03:13.506Z,28.22
2019-02-25T09:05:43.139Z,23.28
2019-02-25T09:08:12.736Z,19.91
2019-02-25T09:10:42.496Z,23.89
2019-02-25T09:13:12.332Z,25.15
2019-02-25T09:15:41.938Z,26.80
2019-02-25T09:18:11.709Z,27.50
2019-02-25T09:20:41.307Z,28.76
2019-02-25T09:23:10.903Z,27.18
2019-02-25T09:25:40.469Z,29.50
2019-02-25T09:28:10.097Z,27.16
2019-02-25T09:30:39.675Z,27.27
2019-02-25T09:33:28.595Z,25.05
2019-02-25T09:35:58.173Z,28.86
2019-02-25T09:38:27.748Z,29.45
2019-02-25T09:40:57.355Z,30.69
2019-02-25T09:43:26.955Z,31.19
2019-02-25T09:45:56.587Z,32.23
2019-02-25T09:48:26.149Z,28.29
2019-02-25T09:50:55.780Z,30.29
2019-02-25T09:53:25.353Z,26.75
2019-02-25T09:55:55.134Z,30.14
2019-02-25T09:58:26.206Z,31.20
2019-02-25T10:01:15.179Z,30.08
2019-02-25T10:03:44.745Z,29.99
2019-02-25T10:06:14.363Z,29.96
2019-02-25T10:08:44.154Z,23.62
2019-02-25T10:11:13.761Z,24.95
2019-02-25T10:13:43.355Z,26.08
2019-02-25T10:16:22.041Z,21.42
2019-02-25T10:18:51.634Z,23.56
2019-02-25T10:21:21.285Z,21.62
2019-02-25T10:24:05.713Z,22.67
2019-02-25T10:26:35.339Z,22.47
2019-02-25T10:29:04.995Z,23.42
2019-02-25T10:31:34.620Z,24.19
2019-02-25T10:34:04.333Z,22.41
2019-02-25T10:36:33.931Z,22.65
2019-02-25T10:39:04.817Z,20.83
2019-02-25T10:41:34.432Z,23.67
2019-02-25T10:44:04.845Z,25.45
2019-02-25T10:46:35.882Z,23.90
2019-02-25T10:49:11.676Z,20.60
2019-02-25T10:51:41.180Z,23.49
2019-02-25T10:54:14.727Z,23.19
2019-02-25T10:56:49.928Z,21.78
2019-02-25T10:59:19.897Z,21.93
2019-02-25T11:01:49.474Z,20.87
2019-02-25T11:04:20.038Z,19.14
2019-02-25T11:06:50.514Z,20.73
2019-02-25T11:09:27.661Z,21.66
2019-02-25T11:11:59.935Z,22.60
2019-02-25T11:14:33.351Z,22.46
2019-02-25T11:17:03.407Z,18.88
2019-02-25T11:19:33.040Z,19.69
2019-02-25T11:22:10.079Z,21.35
2019-02-25T11:24:39.810Z,20.50
2019-02-25T11:27:12.289Z,20.98
2019-02-25T11:29:42.531Z,19.92
2019-02-25T11:32:17.336Z,21.18
2019-02-25T11:34:47.501Z,20.96
2019-02-25T11:37:36.437Z,20.86
2019-02-25T11:40:10.368Z,19.00
2019-02-25T11:42:59.284Z,18.35
2019-02-25T11:45:28.877Z,19.65
2019-02-25T11:47:58.545Z,20.03
2019-02-25T11:50:28.330Z,20.57
2019-02-25T11:52:59.425Z,21.49
2019-02-25T11:55:29.545Z,22.48
2019-02-25T11:57:59.185Z,22.21
2019-02-25T12:00:48.080Z,22.45
2019-02-25T12:03:17.731Z,23.50
2019-02-25T12:05:47.307Z,24.10
2019-02-25T12:08:16.913Z,24.38
2019-02-25T12:10:46.573Z,24.88
2019-02-25T12:13:16.130Z,25.05
2019-02-25T12:15:45.708Z,22.65
2019-02-25T12:18:15.294Z,21.45
2019-02-25T12:20:44.900Z,21.64
2019-02-25T12:23:14.494Z,20.48
2019-02-25T12:26:03.419Z,20.73
2019-02-25T12:28:33.015Z,21.32
2019-02-25T12:31:02.930Z,19.58
2019-02-25T12:33:32.581Z,20.73
2019-02-25T12:52:30.909Z,20.97
2019-02-25T12:55:00.482Z,21.88
2019-02-25T12:57:30.071Z,23.39
2019-02-25T13:00:00.654Z,21.22
2019-02-25T13:02:31.851Z,23.55
2019-02-25T13:05:01.381Z,23.21
2019-02-25T13:07:50.467Z,22.28
2019-02-25T13:10:20.564Z,23.03
2019-02-25T13:12:51.943Z,23.34
2019-02-25T13:15:24.716Z,24.68
2019-02-25T13:17:54.300Z,24.91
2019-02-25T13:20:23.870Z,23.14
2019-02-25T13:23:12.808Z,21.00
2019-02-25T13:25:42.416Z,21.31
2019-02-25T13:28:12.026Z,19.34
2019-02-25T13:31:02.853Z,19.56
2019-02-25T13:33:32.209Z,22.07
2019-02-25T13:36:01.787Z,22.90
2019-02-25T13:38:31.426Z,22.21
2019-02-25T13:41:20.366Z,23.38
2019-02-25T13:43:50.010Z,20.71
2019-02-25T13:46:19.954Z,21.93
2019-02-25T13:49:08.871Z,22.50
2019-02-25T13:51:38.478Z,22.89
2019-02-25T13:54:08.065Z,23.96
2019-02-25T13:56:37.694Z,23.52
2019-02-25T13:59:07.334Z,23.27
2019-02-25T14:01:37.808Z,23.09
2019-02-25T14:04:07.416Z,21.71
2019-02-25T14:06:37.031Z,20.36
2019-02-25T14:09:25.932Z,22.28
2019-02-25T14:11:55.993Z,19.61
2019-02-25T14:14:25.601Z,18.88
2019-02-25T14:16:55.629Z,18.89
2019-02-25T14:19:28.311Z,18.92
2019-02-25T14:21:57.967Z,19.10
2019-02-25T14:24:27.576Z,19.20
2019-02-25T14:26:57.560Z,19.71
2019-02-25T14:29:27.310Z,18.85
2019-02-25T14:31:56.956Z,19.09
2019-02-25T14:34:26.592Z,18.35
2019-02-25T14:36:57.231Z,18.29
2019-02-25T14:39:30.096Z,18.39
2019-02-25T14:42:01.583Z,18.60
2019-02-25T14:44:33.179Z,17.82
2019-02-25T14:47:19.754Z,17.90
2019-02-25T14:49:41.073Z,17.48
2019-02-25T14:52:14.506Z,17.34
2019-02-25T14:54:45.820Z,17.73
2019-02-25T14:57:15.659Z,17.89
2019-02-25T14:59:48.186Z,17.91
2019-02-25T15:02:18.192Z,17.42
2019-02-25T15:04:47.782Z,17.61
2019-02-25T15:07:17.795Z,17.33
2019-02-25T15:09:57.966Z,17.31
2019-02-25T15:12:29.080Z,17.39
2019-02-25T15:15:00.131Z,17.22
2019-02-25T15:17:29.947Z,17.52
2019-02-25T15:20:08.074Z,17.52
2019-02-25T15:22:38.362Z,17.61
2019-02-25T15:25:13.714Z,17.16
2019-02-25T15:27:43.640Z,17.42
2019-02-25T15:30:18.669Z,17.20
2019-02-25T15:32:55.545Z,17.07
2019-02-25T15:35:20.733Z,16.82
2019-02-25T15:37:51.232Z,16.94
2019-02-25T15:40:22.793Z,16.88
2019-02-25T15:42:57.991Z,16.60
2019-02-25T15:45:47.057Z,16.52
2019-02-25T15:48:19.822Z,16.60
2019-02-25T15:50:55.252Z,16.64
2019-02-25T15:53:24.723Z,16.58
2019-02-25T15:55:56.909Z,16.43
2019-02-25T15:58:26.137Z,16.46
2019-02-25T16:00:56.070Z,16.46
2019-02-25T16:03:27.042Z,16.21
2019-02-25T16:05:59.286Z,16.10
2019-02-25T16:08:31.187Z,16.29
2019-02-25T16:11:01.309Z,16.38
2019-02-25T16:13:31.985Z,16.21
2019-02-25T16:16:03.054Z,16.07
2019-02-25T16:18:34.664Z,15.85
2019-02-25T16:21:04.457Z,15.76
2019-02-25T16:23:36.508Z,15.84
2019-02-25T16:26:06.053Z,15.67
2019-02-25T16:28:37.389Z,15.67
2019-02-25T16:31:08.362Z,15.36
2019-02-25T16:33:57.758Z,15.50
2019-02-25T16:36:28.277Z,15.31
2019-02-25T16:39:00.384Z,15.32
2019-02-25T16:41:32.374Z,15.14
2019-02-25T16:44:02.061Z,15.20
2019-02-25T16:46:36.548Z,15.10
2019-02-25T16:49:04.229Z,15.02
2019-02-25T16:51:37.533Z,15.03
2019-02-25T16:54:09.221Z,14.81
2019-02-25T16:56:38.031Z,14.72
2019-02-25T16:59:10.819Z,14.58
2019-02-25T17:01:39.933Z,14.58
2019-02-25T17:04:12.167Z,14.42
2019-02-25T17:06:41.964Z,14.46
2019-02-25T17:09:18.243Z,14.35
2019-02-25T17:11:48.343Z,14.27
2019-02-25T17:14:19.181Z,14.23
2019-02-25T17:16:49.539Z,14.01
2019-02-25T17:19:38.747Z,13.94
2019-02-25T17:22:08.666Z,13.73
2019-02-25T17:24:39.261Z,13.52
2019-02-25T17:27:11.830Z,13.42
2019-02-25T17:29:41.714Z,13.20
2019-02-25T17:32:11.842Z,12.97
2019-02-25T17:35:02.881Z,12.83
2019-02-25T17:37:33.328Z,12.65
2019-02-25T17:40:12.604Z,12.48
2019-02-25T17:42:41.968Z,12.34
2019-02-25T17:45:17.032Z,12.16
2019-02-25T17:47:46.930Z,12.08
2019-02-25T17:50:19.496Z,11.96
2019-02-25T17:52:49.255Z,11.86
2019-02-25T17:55:22.564Z,11.78
2019-02-25T17:57:53.816Z,11.50
2019-02-25T18:00:29.900Z,11.19
2019-02-25T18:03:01.001Z,11.16
2019-02-25T18:05:34.055Z,11.16
2019-02-25T18:08:05.251Z,11.06
2019-02-25T18:10:35.816Z,10.86
2019-02-25T18:13:08.178Z,10.75
2019-02-25T18:15:37.312Z,10.68
2019-02-25T18:18:11.677Z,10.55
2019-02-25T18:20:40.010Z,10.48
2019-02-25T18:23:10.031Z,10.20
2019-02-25T18:25:40.215Z,10.12
2019-02-25T18:28:10.819Z,10.06
2019-02-25T18:30:41.655Z,9.94
2019-02-25T18:33:12.106Z,9.85
2019-02-25T18:35:43.425Z,9.87
2019-02-25T18:38:13.218Z,9.80
2019-02-25T18:41:03.032Z,9.78
2019-02-25T18:43:33.541Z,9.75
2019-02-25T18:46:05.474Z,9.65
2019-02-25T18:48:34.757Z,9.52
2019-02-25T18:51:04.834Z,9.40
2019-02-25T18:53:35.283Z,9.29
2019-02-25T18:56:05.454Z,9.20
2019-02-25T18:58:37.484Z,9.03
2019-02-25T19:01:09.694Z,9.02
2019-02-25T19:03:40.025Z,8.91
2019-02-25T19:06:09.983Z,8.79
2019-02-25T19:08:43.094Z,8.76
2019-02-25T19:11:13.061Z,8.68
2019-02-25T19:13:45.829Z,8.63
2019-02-25T19:16:15.762Z,8.52
2019-02-25T19:19:06.411Z,8.47
2019-02-25T19:21:36.712Z,8.41
2019-02-25T19:24:07.691Z,8.36
2019-02-25T19:26:40.227Z,8.28
2019-02-25T19:29:09.524Z,8.25
2019-02-25T19:31:39.879Z,8.26
2019-02-25T19:34:10.672Z,8.33
2019-02-25T19:36:41.727Z,8.29
2019-02-25T19:39:14.401Z,8.15
2019-02-25T19:41:47.037Z,8.10
2019-02-25T19:44:16.307Z,8.03
2019-02-25T19:47:07.317Z,7.93
2019-02-25T19:49:37.134Z,7.81
2019-02-25T19:52:07.999Z,7.73
2019-02-25T19:54:40.860Z,7.72
2019-02-25T19:57:11.574Z,7.67
2019-02-25T20:00:02.944Z,7.54
2019-02-25T20:02:34.775Z,7.46
2019-02-25T20:05:09.568Z,7.45
2019-02-25T20:07:36.431Z,7.45
2019-02-25T20:10:11.621Z,7.42
2019-02-25T20:12:42.131Z,7.39
2019-02-25T20:15:31.170Z,7.23
2019-02-25T20:18:00.752Z,7.16
2019-02-25T20:20:34.068Z,7.16
2019-02-25T20:23:06.035Z,7.13
2019-02-25T20:25:35.296Z,7.13
2019-02-25T20:28:05.576Z,6.89
2019-02-25T20:30:35.214Z,6.90
2019-02-25T20:33:06.916Z,6.90
2019-02-25T20:35:36.376Z,6.69
2019-02-25T20:38:06.139Z,6.58
2019-02-25T20:40:36.806Z,6.64
2019-02-25T20:43:06.542Z,6.62
2019-02-25T20:45:37.651Z,6.56
2019-02-25T20:48:07.435Z,6.41
2019-02-25T20:50:37.004Z,6.37
2019-02-25T20:53:09.188Z,6.37
2019-02-25T20:55:43.641Z,6.39
2019-02-25T20:58:13.924Z,6.41
2019-02-25T21:00:46.351Z,6.30
2019-02-25T21:03:23.246Z,6.25
2019-02-25T21:05:53.234Z,6.13
2019-02-25T21:08:23.535Z,6.19
2019-02-25T21:10:53.153Z,5.98
2019-02-25T21:13:31.165Z,5.92
2019-02-25T21:16:00.861Z,5.87
2019-02-25T21:18:31.260Z,5.86
2019-02-25T21:21:02.405Z,5.81
2019-02-25T21:23:31.991Z,5.82
2019-02-25T21:26:04.293Z,5.80
2019-02-25T21:28:33.700Z,5.71
2019-02-25T21:31:14.582Z,5.58
2019-02-25T21:33:47.319Z,5.53
2019-02-25T21:36:18.576Z,5.56
2019-02-25T21:38:49.567Z,5.62
2019-02-25T21:41:19.427Z,5.59
2019-02-25T21:43:49.432Z,5.55
2019-02-25T21:46:23.863Z,5.56
2019-02-25T21:49:11.019Z,5.54
2019-02-25T21:51:41.649Z,5.42
2019-02-25T21:54:11.888Z,5.25
2019-02-25T21:56:41.509Z,5.24
2019-02-25T21:59:12.713Z,5.18
2019-02-25T22:01:42.380Z,5.15
2019-02-25T22:04:13.406Z,5.16
2019-02-25T22:06:47.088Z,5.15
2019-02-25T22:09:21.171Z,5.14
2019-02-25T22:11:48.890Z,5.14
2019-02-25T22:14:19.101Z,5.18
2019-02-25T22:16:51.998Z,5.20
2019-02-25T22:19:21.085Z,5.23
2019-02-25T22:21:53.571Z,5.17
2019-02-25T22:24:24.782Z,5.03
2019-02-25T22:26:54.248Z,5.08
2019-02-25T22:29:45.223Z,5.01
2019-02-25T22:32:14.907Z,4.60
2019-02-25T22:34:44.457Z,4.61
2019-02-25T22:37:16.762Z,4.64
2019-02-25T22:40:09.784Z,4.65
2019-02-25T22:42:39.378Z,4.39
2019-02-25T22:45:14.238Z,4.49
2019-02-25T22:47:44.883Z,4.54
2019-02-25T22:50:15.363Z,4.54
2019-02-25T22:52:46.716Z,4.44
2019-02-25T22:55:19.189Z,4.47
2019-02-25T22:58:08.858Z,4.42
2019-02-25T23:00:44.086Z,4.43
2019-02-25T23:03:16.022Z,4.06
2019-02-25T23:05:47.749Z,4.09
2019-02-25T23:08:18.047Z,4.06
2019-02-25T23:10:49.381Z,4.05
2019-02-25T23:13:22.647Z,4.05
2019-02-25T23:15:53.493Z,4.07
2019-02-25T23:18:27.293Z,4.06
2019-02-25T23:20:57.360Z,3.98
2019-02-25T23:23:28.135Z,4.02
2019-02-25T23:26:16.992Z,3.90
2019-02-25T23:28:48.934Z,3.84
2019-02-25T23:31:19.129Z,3.83
2019-02-25T23:33:49.404Z,3.81
2019-02-25T23:36:21.721Z,3.85
2019-02-25T23:38:53.065Z,3.69
2019-02-25T23:41:22.740Z,3.56
2019-02-25T23:44:13.237Z,3.62
2019-02-25T23:47:04.222Z,3.63
2019-02-25T23:49:36.295Z,3.63
2019-02-25T23:52:05.202Z,3.57
2019-02-25T23:54:34.785Z,3.40
2019-02-25T23:57:04.393Z,3.39
2019-02-25T23:59:33.997Z,3.38
